This is the latest recevied weather packets stored in our database for station/object YO8SHU-10. If no packets are shown the sender has not sent any weather packets the latest 10 day(s).
| Time | Temp. | Humidity | Pressure | Rain* | Wind** | Luminosity | Snow |
|---|---|---|---|---|---|---|---|
| 1777207401 | 14.44° C | 48% | 1016.8 hPa | - | - | - | - |
| 1777205601 | 15° C | 49% | 1016 hPa | - | - | - | - |
| 1777203801 | 15° C | 55% | 1016.4 hPa | - | - | - | - |
| 1777202001 | 14.44° C | 64% | 1016.4 hPa | - | - | - | - |
| 1777200201 | 13.33° C | 68% | 1015.1 hPa | - | - | - | - |
| 1777198401 | 13.33° C | 76% | 1016 hPa | - | - | - | - |
| 1777196601 | 13.33° C | 82% | 1014 hPa | - | - | - | - |
| 1777194801 | 25° C | 28% | 1011.8 hPa | - | - | - | - |
| 1777193000 | 24.44° C | 31% | 1011.5 hPa | - | - | - | - |
| 1777191200 | 23.89° C | 34% | 1011.7 hPa | - | - | - | - |
| 1777189400 | 23.33° C | 35% | 1011.8 hPa | - | - | - | - |
| 1777187599 | 22.78° C | 41% | 1012 hPa | - | - | - | - |
| 1777185799 | 22.22° C | 50% | 1012.2 hPa | - | - | - | - |
| 1777183999 | 21.67° C | 59% | 1012.4 hPa | - | - | - | - |
| 1777182199 | 19.44° C | 66% | 1012.6 hPa | - | - | - | - |
| 1777180399 | 19.44° C | 67% | 1012.9 hPa | - | - | - | - |
| 1777178599 | 19.44° C | 62% | 1013.1 hPa | - | - | - | - |
| 1777176799 | 15.56° C | 78% | 1013.4 hPa | - | - | - | - |
| 1777174999 | 12.22° C | 94% | 1013.4 hPa | - | - | - | - |
| 1777173198 | 7.78° C | 100% | 1013.6 hPa | - | - | - | - |
| 1777171398 | 7.22° C | 100% | 1013.9 hPa | - | - | - | - |
| 1777169598 | 7.78° C | 100% | 1014.1 hPa | - | - | - | - |
| 1777167798 | 7.78° C | 100% | 1014.3 hPa | - | - | - | - |
| 1777165998 | 8.33° C | 100% | 1014.4 hPa | - | - | - | - |
| 1777164198 | 8.89° C | 100% | 1014.8 hPa | - | - | - | - |
* Rain since midnight (hover to see other rain measurements)
** Current wind speed in m/s (hover to see current wind gust speed)